< < Back
Terminal Aerodrome Forecast


Current Version              Previous Versions:   1  2  3  4  5  6  7  8  9  

Terminal Aerodrome Forecast

429
FTUS44 KOHX 220500
TAFCSV
TAF
KCSV 220520Z 2206/2306 00000KT P6SM SCT030 BKN250
      TEMPO 2208/2212 4SM BR SCT015 SCT030 BKN250
     FM221200 VRB03KT P6SM SCT020 BKN040
      TEMPO 2212/2215 BKN020 BKN040
     FM221900 VRB03KT P6SM VCTS SCT030CB BKN250
      TEMPO 2219/2223 BKN030CB BKN250=

Latest METAR

517
SAUS70 KWBC 220900 RRG
MTRCSV
METAR KCSV 220853Z AUTO 00000KT 6SM BR CLR 19/18 A3015 RMK AO2 SLP188
T01940178 55002


USA.gov is the U.S. government's official web portal to all federal, state and local government web resources and services.